Terminal Aerodrome Forecast
Issued by NWS

Home | Current Version | Previous Version | Text Only | Print | Product List | Glossary On
Versions: 1 2 3 4 5 6 7 8 9 10 11 12 13 14 15 16 17 18 19 20 21 22 23 24 25
577
FTUS43 KDLH 291044 AAA
TAFHYR
TAF AMD
KHYR 291044Z 2911/3006 25006KT P6SM VCSH SCT008 OVC012
      TEMPO 2911/2915 -SHRA OVC008
     FM291500 26008KT P6SM VCSH OVC013
     FM291900 26011G17KT 6SM -SHRA BR BKN018 OVC030
     FM292100 28010G17KT P6SM -SHRA BKN025
     FM300100 26006KT P6SM VCSH BKN030
     FM300300 26006KT P6SM BKN035=

USA.gov is the U.S. government's official web portal to all federal, state and local government web resources and services.